createdAt,value
2022-07-25T00:01:15.177Z,100354.63
2022-07-25T00:04:18.982Z,100364.00
2022-07-25T00:07:21.758Z,100360.53
2022-07-25T00:10:25.087Z,100359.81
2022-07-25T00:13:27.747Z,100362.03
2022-07-25T00:16:30.890Z,100361.25
2022-07-25T00:19:33.705Z,100362.59
2022-07-25T00:22:36.621Z,100358.97
2022-07-25T00:25:39.860Z,100359.59
2022-07-25T00:28:43.798Z,100359.44
2022-07-25T00:31:47.045Z,100345.50
2022-07-25T00:34:50.030Z,100344.06
2022-07-25T00:37:52.706Z,100354.19
2022-07-25T00:40:55.913Z,100356.28
2022-07-25T00:43:58.685Z,100345.84
2022-07-25T00:47:01.655Z,100348.72
2022-07-25T00:50:05.173Z,100351.41
2022-07-25T00:53:08.277Z,100347.62
2022-07-25T00:56:11.520Z,100358.38
2022-07-25T00:59:14.924Z,100349.19
2022-07-25T01:02:17.783Z,100348.72
2022-07-25T01:05:21.235Z,100362.97
2022-07-25T01:08:24.374Z,100359.50
2022-07-25T01:11:27.351Z,100353.03
2022-07-25T01:14:30.019Z,100356.50
2022-07-25T01:17:32.911Z,100350.62
2022-07-25T01:20:36.208Z,100354.12
2022-07-25T01:23:39.139Z,100357.12
2022-07-25T01:26:41.862Z,100358.09
2022-07-25T01:29:44.828Z,100349.22
2022-07-25T01:32:48.212Z,100357.22
2022-07-25T01:35:51.347Z,100349.31
2022-07-25T01:38:54.376Z,100351.69
2022-07-25T01:41:57.477Z,100345.03
2022-07-25T01:45:00.542Z,100340.44
2022-07-25T01:48:04.222Z,100344.38
2022-07-25T01:51:08.215Z,100335.03
2022-07-25T01:54:14.160Z,100342.59
2022-07-25T01:57:17.762Z,100336.63
2022-07-25T02:00:21.186Z,100333.62
2022-07-25T02:03:29.871Z,100333.94
2022-07-25T02:06:34.416Z,100329.22
2022-07-25T02:09:37.402Z,100338.37
2022-07-25T02:12:40.090Z,100337.28
2022-07-25T02:15:43.222Z,100327.91
2022-07-25T02:18:46.116Z,100331.41
2022-07-25T02:21:50.802Z,100323.31
2022-07-25T02:24:53.487Z,100327.53
2022-07-25T02:27:56.394Z,100331.53
2022-07-25T02:30:59.146Z,100323.88
2022-07-25T02:34:02.809Z,100331.28
2022-07-25T02:37:05.599Z,100333.47
2022-07-25T02:40:09.615Z,100331.13
2022-07-25T02:43:12.329Z,100333.19
2022-07-25T02:46:17.819Z,100338.94
2022-07-25T02:49:20.647Z,100336.47
2022-07-25T02:52:23.780Z,100336.69
2022-07-25T02:55:27.544Z,100333.66
2022-07-25T02:58:30.471Z,100337.22
2022-07-25T03:01:33.484Z,100336.13
2022-07-25T03:04:37.702Z,100343.06
2022-07-25T03:07:40.986Z,100337.44
2022-07-25T03:10:44.103Z,100339.97
2022-07-25T03:13:46.777Z,100338.66
2022-07-25T03:16:49.725Z,100348.81
2022-07-25T03:19:52.503Z,100345.97
2022-07-25T03:22:55.497Z,100355.91
2022-07-25T03:25:58.533Z,100349.00
2022-07-25T03:29:01.407Z,100359.97
2022-07-25T03:32:04.777Z,100360.94
2022-07-25T03:35:08.212Z,100360.19
2022-07-25T03:38:11.077Z,100361.59
2022-07-25T03:41:14.096Z,100361.25
2022-07-25T03:44:16.783Z,100366.59
2022-07-25T03:47:20.625Z,100360.69
2022-07-25T03:50:23.811Z,100360.00
2022-07-25T03:53:26.702Z,100363.53
2022-07-25T03:56:40.321Z,100357.94
2022-07-25T03:59:47.089Z,100364.72
2022-07-25T04:02:49.925Z,100370.91
2022-07-25T04:05:52.954Z,100366.56
2022-07-25T04:08:56.253Z,100370.97
2022-07-25T04:11:59.255Z,100374.56
2022-07-25T04:15:02.147Z,100382.34
2022-07-25T04:18:06.295Z,100381.44
2022-07-25T04:21:11.455Z,100377.22
2022-07-25T04:24:14.377Z,100388.31
2022-07-25T04:27:17.071Z,100384.06
2022-07-25T04:30:24.479Z,100388.44
2022-07-25T04:33:27.972Z,100387.78
2022-07-25T04:36:30.992Z,100385.50
2022-07-25T04:39:33.766Z,100391.50
2022-07-25T04:42:36.873Z,100390.72
2022-07-25T04:45:39.853Z,100390.03
2022-07-25T04:48:42.892Z,100391.16
2022-07-25T04:51:49.038Z,100390.81
2022-07-25T04:54:51.979Z,100381.03
2022-07-25T04:57:54.643Z,100380.84
2022-07-25T05:00:58.219Z,100378.78
2022-07-25T05:04:01.007Z,100382.84
2022-07-25T05:07:04.135Z,100383.50
2022-07-25T05:10:07.288Z,100372.59
2022-07-25T05:13:10.762Z,100383.50
2022-07-25T05:16:15.828Z,100380.31
2022-07-25T05:19:18.782Z,100376.00
2022-07-25T05:22:25.189Z,100378.47
2022-07-25T05:25:31.173Z,100380.50
2022-07-25T05:28:34.058Z,100380.72
2022-07-25T05:31:37.043Z,100389.22
2022-07-25T05:34:41.191Z,100380.31
2022-07-25T05:37:44.213Z,100378.19
2022-07-25T05:40:47.023Z,100384.31
2022-07-25T05:43:50.018Z,100381.41
2022-07-25T05:46:52.735Z,100380.09
2022-07-25T05:49:55.861Z,100375.47
2022-07-25T05:52:58.545Z,100372.09
2022-07-25T05:56:01.599Z,100371.81
2022-07-25T05:59:04.338Z,100373.78
2022-07-25T06:02:07.845Z,100376.16
2022-07-25T06:05:10.990Z,100380.00
2022-07-25T06:08:14.794Z,100377.78
2022-07-25T06:11:17.939Z,100367.41
2022-07-25T06:14:21.526Z,100367.56
2022-07-25T06:17:29.230Z,100367.50
2022-07-25T06:20:35.515Z,100367.78
2022-07-25T06:23:38.786Z,100364.81
2022-07-25T06:26:41.614Z,100365.34
2022-07-25T06:29:44.845Z,100366.03
2022-07-25T06:32:48.909Z,100366.84
2022-07-25T06:35:52.070Z,100359.69
2022-07-25T06:38:54.812Z,100358.87
2022-07-25T06:41:59.730Z,100353.81
2022-07-25T06:45:12.277Z,100358.81
2022-07-25T06:48:18.875Z,100354.63
2022-07-25T06:51:23.735Z,100345.56
2022-07-25T06:54:26.871Z,100350.44
2022-07-25T06:57:29.708Z,100354.75
2022-07-25T07:00:32.963Z,100350.06
2022-07-25T07:03:38.415Z,100344.75
2022-07-25T07:06:41.871Z,100347.22
2022-07-25T07:09:44.635Z,100347.00
2022-07-25T07:12:48.725Z,100338.31
2022-07-25T07:15:52.143Z,100336.47
2022-07-25T07:18:55.363Z,100331.28
2022-07-25T07:21:58.004Z,100339.97
2022-07-25T07:25:01.890Z,100331.84
2022-07-25T07:28:05.271Z,100336.66
2022-07-25T07:31:17.253Z,100331.69
2022-07-25T07:34:20.584Z,100340.12
2022-07-25T07:37:23.599Z,100335.44
2022-07-25T07:40:26.997Z,100336.38
2022-07-25T07:43:31.886Z,100334.78
2022-07-25T07:46:34.875Z,100339.34
2022-07-25T07:49:38.171Z,100335.31
2022-07-25T07:52:40.880Z,100333.09
2022-07-25T07:55:48.789Z,100332.47
2022-07-25T07:58:51.611Z,100328.94
2022-07-25T08:01:54.604Z,100327.22
2022-07-25T08:04:57.673Z,100328.81
2022-07-25T08:08:01.429Z,100327.50
2022-07-25T08:11:04.513Z,100332.22
2022-07-25T08:14:07.809Z,100326.19
2022-07-25T08:17:12.907Z,100330.22
2022-07-25T08:20:36.768Z,100319.72
2022-07-25T08:23:40.110Z,100323.03
2022-07-25T08:26:42.828Z,100327.25
2022-07-25T08:29:45.813Z,100316.16
2022-07-25T08:32:48.446Z,100315.88
2022-07-25T08:35:54.661Z,100314.22
2022-07-25T08:38:57.420Z,100306.91
2022-07-25T08:42:01.269Z,100312.28
2022-07-25T08:45:07.036Z,100314.13
2022-07-25T08:48:10.844Z,100304.06
2022-07-25T08:51:14.705Z,100302.50
2022-07-25T08:54:18.427Z,100301.25
2022-07-25T08:57:21.935Z,100304.09
2022-07-25T09:00:31.185Z,100299.94
2022-07-25T09:03:33.970Z,100293.00
2022-07-25T09:06:37.621Z,100298.84
2022-07-25T09:09:40.367Z,100290.16
2022-07-25T09:12:53.913Z,100293.72
2022-07-25T09:15:59.810Z,100294.50
2022-07-25T09:19:23.379Z,100284.75
2022-07-25T09:22:26.116Z,100278.06
2022-07-25T09:25:32.108Z,100277.19
2022-07-25T09:28:49.324Z,100275.63
2022-07-25T09:31:53.923Z,100273.84
2022-07-25T09:34:56.571Z,100269.50
2022-07-25T09:38:13.802Z,100264.22
2022-07-25T09:41:16.514Z,100260.84
2022-07-25T09:44:24.250Z,100256.31
2022-07-25T09:47:27.465Z,100256.63
2022-07-25T09:50:33.514Z,100251.09
2022-07-25T09:53:36.636Z,100240.78
2022-07-25T09:56:39.712Z,100245.94
2022-07-25T09:59:45.799Z,100241.88
2022-07-25T10:02:54.888Z,100230.50
2022-07-25T10:06:03.563Z,100227.75
2022-07-25T10:09:14.483Z,100223.81
2022-07-25T10:12:23.392Z,100214.19
2022-07-25T10:15:26.057Z,100213.19
2022-07-25T10:18:30.882Z,100218.53
2022-07-25T10:21:33.593Z,100203.47
2022-07-25T10:24:39.022Z,100209.22
2022-07-25T10:27:50.712Z,100203.72
2022-07-25T10:30:58.778Z,100193.13
2022-07-25T10:34:07.944Z,100190.41
2022-07-25T10:37:18.425Z,100178.03
2022-07-25T10:40:44.116Z,100180.59
2022-07-25T10:43:50.463Z,100176.31
2022-07-25T10:47:09.369Z,100172.19
2022-07-25T10:50:34.665Z,100171.47
2022-07-25T10:53:45.185Z,100169.22
2022-07-25T10:56:59.124Z,100162.06
2022-07-25T11:00:09.163Z,100156.41
2022-07-25T11:03:17.699Z,100151.25
2022-07-25T11:06:39.758Z,100143.75
2022-07-25T11:09:44.486Z,100141.63
2022-07-25T11:12:47.278Z,100137.22
2022-07-25T11:15:50.683Z,100131.81
2022-07-25T11:18:57.112Z,100129.97
2022-07-25T11:22:04.392Z,100116.19
2022-07-25T11:25:12.961Z,100119.00
2022-07-25T11:28:15.939Z,100114.19
2022-07-25T11:31:22.414Z,100103.09
2022-07-25T11:34:31.815Z,100099.88
2022-07-25T11:37:40.177Z,100093.00
2022-07-25T11:40:44.254Z,100089.84
2022-07-25T11:43:50.171Z,100091.78
2022-07-25T11:46:53.144Z,100089.56
2022-07-25T11:49:59.162Z,100080.34
2022-07-25T11:53:14.577Z,100071.31
2022-07-25T11:56:42.436Z,100068.63
2022-07-25T11:59:43.963Z,100067.00
2022-07-25T12:02:50.705Z,100065.88
2022-07-25T12:05:55.206Z,100064.50
2022-07-25T12:08:58.279Z,100057.03
2022-07-25T12:12:04.707Z,100058.38
2022-07-25T12:15:09.287Z,100047.66
2022-07-25T12:18:12.643Z,100045.62
2022-07-25T12:21:15.319Z,100053.34
2022-07-25T12:24:18.323Z,100038.72
2022-07-25T12:27:21.131Z,100042.53
2022-07-25T12:30:25.653Z,100025.16
2022-07-25T12:33:28.404Z,100021.88
2022-07-25T12:36:31.579Z,100017.41
2022-07-25T12:39:34.396Z,100019.84
2022-07-25T12:42:37.389Z,100012.63
2022-07-25T12:45:40.475Z,99998.50
2022-07-25T12:48:44.153Z,100002.28
2022-07-25T12:51:46.894Z,100001.91
2022-07-25T12:54:49.957Z,99995.50
2022-07-25T12:57:53.047Z,99994.06
2022-07-25T13:01:02.220Z,99986.53
2022-07-25T13:04:07.371Z,99983.91
2022-07-25T13:07:10.459Z,99974.16
2022-07-25T13:10:13.332Z,99970.75
2022-07-25T13:13:16.328Z,99962.22
2022-07-25T13:16:19.154Z,99963.00
2022-07-25T13:19:22.172Z,99964.31
2022-07-25T13:22:25.615Z,99952.06
2022-07-25T13:25:28.865Z,99950.06
2022-07-25T13:28:31.951Z,99944.09
2022-07-25T13:31:36.130Z,99941.22
2022-07-25T13:34:39.287Z,99935.44
2022-07-25T13:37:42.349Z,99929.50
2022-07-25T13:40:45.087Z,99928.88
2022-07-25T13:43:48.070Z,99921.91
2022-07-25T13:46:50.857Z,99922.00
2022-07-25T13:49:54.322Z,99912.41
2022-07-25T13:52:57.590Z,99905.03
2022-07-25T13:56:00.951Z,99897.84
2022-07-25T13:59:04.754Z,99895.28
2022-07-25T14:02:12.801Z,99897.50
2022-07-25T14:05:15.991Z,99890.50
2022-07-25T14:08:19.268Z,99889.31
2022-07-25T14:11:25.900Z,99875.53
2022-07-25T14:14:31.368Z,99882.94
2022-07-25T14:17:35.338Z,99869.19
2022-07-25T14:20:38.123Z,99869.81
2022-07-25T14:23:41.230Z,99864.41
2022-07-25T14:26:43.963Z,99861.19
2022-07-25T14:29:47.013Z,99852.78
2022-07-25T14:32:49.740Z,99861.75
2022-07-25T14:35:52.814Z,99848.47
2022-07-25T14:38:55.808Z,99850.53
2022-07-25T14:41:59.516Z,99844.59
2022-07-25T14:45:02.207Z,99841.41
2022-07-25T14:48:08.575Z,99836.13
2022-07-25T14:51:11.425Z,99827.75
2022-07-25T14:54:15.182Z,99826.47
2022-07-25T14:57:19.857Z,99825.37
2022-07-25T15:00:29.165Z,99810.97
2022-07-25T15:03:32.289Z,99816.41
2022-07-25T15:06:36.411Z,99807.00
2022-07-25T15:09:39.195Z,99814.34
2022-07-25T15:12:45.109Z,99798.59
2022-07-25T15:15:47.982Z,99793.06
2022-07-25T15:19:25.867Z,99788.91
2022-07-25T15:22:13.962Z,99794.81
2022-07-25T15:25:48.254Z,99786.53
2022-07-25T15:28:40.031Z,99782.56
2022-07-25T15:31:43.067Z,99772.87
2022-07-25T15:34:45.883Z,99778.84
2022-07-25T15:37:48.953Z,99769.69
2022-07-25T15:40:52.053Z,99776.03
2022-07-25T15:43:54.950Z,99774.53
2022-07-25T15:46:57.685Z,99770.41
2022-07-25T15:50:01.419Z,99767.25
2022-07-25T15:53:05.009Z,99766.75
2022-07-25T15:56:08.090Z,99759.59
2022-07-25T15:59:10.862Z,99764.22
2022-07-25T16:02:13.993Z,99762.38
2022-07-25T16:05:17.133Z,99760.69
2022-07-25T16:08:19.793Z,99762.44
2022-07-25T16:11:22.766Z,99758.59
2022-07-25T16:14:25.584Z,99760.28
2022-07-25T16:17:32.038Z,99758.88
2022-07-25T16:20:34.841Z,99758.13
2022-07-25T16:23:42.530Z,99751.56
2022-07-25T16:26:49.094Z,99754.84
2022-07-25T16:29:52.284Z,99745.47
2022-07-25T16:32:55.576Z,99746.16
2022-07-25T16:35:58.680Z,99741.59
2022-07-25T16:39:02.414Z,99741.69
2022-07-25T16:42:05.639Z,99741.47
2022-07-25T16:45:09.276Z,99747.16
2022-07-25T16:48:12.366Z,99739.38
2022-07-25T16:51:15.299Z,99734.75
2022-07-25T16:54:18.238Z,99734.06
2022-07-25T16:57:25.115Z,99738.84
2022-07-25T17:00:28.458Z,99735.03
2022-07-25T17:03:31.198Z,99732.72
2022-07-25T17:06:34.259Z,99730.09
2022-07-25T17:09:37.098Z,99738.75
2022-07-25T17:12:40.169Z,99728.59
2022-07-25T17:15:45.548Z,99733.81
2022-07-25T17:18:48.968Z,99726.91
2022-07-25T17:21:51.824Z,99728.84
2022-07-25T17:24:54.808Z,99736.41
2022-07-25T17:27:57.801Z,99730.47
2022-07-25T17:31:00.902Z,99735.09
2022-07-25T17:34:03.835Z,99722.09
2022-07-25T17:37:07.759Z,99725.13
2022-07-25T17:40:11.002Z,99727.63
2022-07-25T17:43:14.069Z,99723.12
2022-07-25T17:46:16.961Z,99723.00
2022-07-25T17:49:21.726Z,99722.56
2022-07-25T17:52:24.547Z,99726.50
2022-07-25T17:55:28.801Z,99717.06
2022-07-25T17:58:31.958Z,99713.97
2022-07-25T18:01:35.012Z,99716.47
2022-07-25T18:04:38.039Z,99720.09
2022-07-25T18:07:45.393Z,99718.56
2022-07-25T18:10:49.921Z,99716.78
2022-07-25T18:13:52.584Z,99705.00
2022-07-25T18:16:55.942Z,99705.88
2022-07-25T18:19:58.778Z,99706.41
2022-07-25T18:23:01.884Z,99697.56
2022-07-25T18:26:04.709Z,99689.63
2022-07-25T18:29:08.598Z,99694.50
2022-07-25T18:32:11.959Z,99690.72
2022-07-25T18:35:14.968Z,99695.91
2022-07-25T18:38:18.711Z,99692.09
2022-07-25T18:41:30.265Z,99688.87
2022-07-25T18:44:33.367Z,99687.53
2022-07-25T18:47:37.523Z,99682.91
2022-07-25T18:50:40.559Z,99691.34
2022-07-25T18:53:47.812Z,99688.41
2022-07-25T18:56:51.279Z,99689.28
2022-07-25T18:59:54.258Z,99695.69
2022-07-25T19:02:57.235Z,99687.91
2022-07-25T19:06:03.492Z,99690.75
2022-07-25T19:09:06.643Z,99685.81
2022-07-25T19:12:10.690Z,99693.22
2022-07-25T19:15:13.447Z,99688.16
2022-07-25T19:18:16.664Z,99687.41
2022-07-25T19:21:19.370Z,99688.97
2022-07-25T19:24:22.649Z,99696.75
2022-07-25T19:27:26.946Z,99698.31
2022-07-25T19:30:30.490Z,99689.75
2022-07-25T19:33:34.950Z,99697.16
2022-07-25T19:36:39.472Z,99694.81
2022-07-25T19:39:42.175Z,99694.00
2022-07-25T19:42:45.179Z,99688.97
2022-07-25T19:45:48.831Z,99695.13
2022-07-25T19:48:52.096Z,99686.63
2022-07-25T19:51:54.896Z,99688.94
2022-07-25T19:54:58.747Z,99686.66
2022-07-25T19:58:01.496Z,99692.06
2022-07-25T20:01:04.520Z,99697.44
2022-07-25T20:04:09.275Z,99691.19
2022-07-25T20:07:12.292Z,99702.19
2022-07-25T20:10:17.723Z,99699.81
2022-07-25T20:13:20.910Z,99696.66
2022-07-25T20:16:24.168Z,99685.75
2022-07-25T20:19:27.025Z,99683.03
2022-07-25T20:22:31.592Z,99684.53
2022-07-25T20:25:34.260Z,99689.59
2022-07-25T20:28:38.137Z,99685.56
2022-07-25T20:31:42.617Z,99684.94
2022-07-25T20:34:45.664Z,99676.72
2022-07-25T20:37:48.476Z,99679.00
2022-07-25T20:40:52.340Z,99672.34
2022-07-25T20:43:55.072Z,99680.00
2022-07-25T20:46:58.052Z,99681.19
2022-07-25T20:50:01.448Z,99673.75
2022-07-25T20:53:06.138Z,99668.75
2022-07-25T20:56:09.153Z,99664.59
2022-07-25T20:59:12.164Z,99667.19
2022-07-25T21:02:17.426Z,99679.44
2022-07-25T21:05:21.621Z,99667.97
2022-07-25T21:08:24.535Z,99673.72
2022-07-25T21:11:27.529Z,99679.06
2022-07-25T21:14:30.211Z,99680.16
2022-07-25T21:17:34.076Z,99678.91
2022-07-25T21:20:36.780Z,99672.91
2022-07-25T21:23:40.734Z,99676.25
2022-07-25T21:26:43.469Z,99674.56
2022-07-25T21:29:46.780Z,99674.38
2022-07-25T21:32:49.501Z,99678.81
2022-07-25T21:35:53.006Z,99675.50
2022-07-25T21:38:56.715Z,99675.34
2022-07-25T21:41:59.991Z,99677.44
2022-07-25T21:45:04.679Z,99677.97
2022-07-25T21:48:07.814Z,99679.81
2022-07-25T21:51:15.190Z,99677.78
2022-07-25T21:54:26.511Z,99667.69
2022-07-25T21:57:29.275Z,99665.81
2022-07-25T22:00:33.521Z,99662.16
2022-07-25T22:03:36.923Z,99667.19
2022-07-25T22:06:39.618Z,99676.91
2022-07-25T22:09:42.641Z,99667.94
2022-07-25T22:12:45.751Z,99668.53
2022-07-25T22:15:48.832Z,99670.72
2022-07-25T22:18:51.519Z,99662.53
2022-07-25T22:21:54.594Z,99665.69
2022-07-25T22:24:57.339Z,99671.50
2022-07-25T22:28:01.268Z,99675.13
2022-07-25T22:31:04.226Z,99670.97
2022-07-25T22:34:07.307Z,99673.22
2022-07-25T22:37:10.120Z,99669.97
2022-07-25T22:40:13.701Z,99669.66
2022-07-25T22:43:16.341Z,99670.81
2022-07-25T22:46:19.336Z,99672.75
2022-07-25T22:49:23.400Z,99670.72
2022-07-25T22:52:26.503Z,99680.50
2022-07-25T22:55:29.325Z,99689.59
2022-07-25T22:58:32.278Z,99683.56
2022-07-25T23:01:35.022Z,99689.25
2022-07-25T23:04:38.460Z,99686.88
2022-07-25T23:07:41.174Z,99697.72
2022-07-25T23:10:44.085Z,99693.22
2022-07-25T23:13:48.003Z,99704.53
2022-07-25T23:17:10.834Z,99691.28
2022-07-25T23:20:13.730Z,99700.94
2022-07-25T23:23:16.741Z,99697.28
2022-07-25T23:26:19.409Z,99693.63
2022-07-25T23:29:22.381Z,99697.97
2022-07-25T23:32:25.029Z,99706.06
2022-07-25T23:35:28.023Z,99710.59
2022-07-25T23:38:30.759Z,99703.94
2022-07-25T23:41:33.652Z,99695.25
2022-07-25T23:44:37.991Z,99701.78
2022-07-25T23:47:41.210Z,99705.19
2022-07-25T23:50:45.673Z,99709.00
2022-07-25T23:53:48.751Z,99706.06
2022-07-25T23:56:51.958Z,99702.66
2022-07-25T23:59:54.904Z,99704.94
